Terminal Aerodrome Forecast
Issued by NWS

Current Version | Previous Version | Text Only | Print | Product List | Glossary On
Versions: 1 2 3 4 5 6 7 8 9 10 11 12 13 14 15
000
FTUS42 KTAE 011738
TAFECP
TAF
KECP 011738Z 0118/0218 22013KT P6SM SCT030
     FM020000 00000KT P6SM SKC
     FM020600 00000KT 1SM BR OVC005
     FM021500 17005KT P6SM SCT050 BKN250=

USA.gov is the U.S. government's official web portal to all federal, state and local government web resources and services.